KFOE 241553Z 27011KT 10SM SCT016 OVC023 12/07 A2996 RMK AO2 SLP145 T01170072